sensor_id;sensor_type;location;lat;lon;timestamp;pressure;altitude;pressure_sealevel;temperature;humidity
6194;BME280;3130;41.564;23.280;2022-08-18T00:02:13;98521.00;;;23.80;57.78
6194;BME280;3130;41.564;23.280;2022-08-18T00:04:42;98511.44;;;23.58;58.23
6194;BME280;3130;41.564;23.280;2022-08-18T00:07:11;98424.81;;;22.95;58.78
6194;BME280;3130;41.564;23.280;2022-08-18T00:09:40;98514.88;;;23.44;59.26
6194;BME280;3130;41.564;23.280;2022-08-18T00:12:13;98518.28;;;23.44;59.45
6194;BME280;3130;41.564;23.280;2022-08-18T00:14:43;98514.59;;;23.39;59.29
6194;BME280;3130;41.564;23.280;2022-08-18T00:17:11;98458.09;;;23.01;59.64
6194;BME280;3130;41.564;23.280;2022-08-18T00:19:39;98501.72;;;23.23;59.83
6194;BME280;3130;41.564;23.280;2022-08-18T00:22:07;98517.94;;;23.33;60.04
6194;BME280;3130;41.564;23.280;2022-08-18T00:24:35;98502.88;;;23.21;60.13
6194;BME280;3130;41.564;23.280;2022-08-18T00:27:03;98527.97;;;23.30;60.17
6194;BME280;3130;41.564;23.280;2022-08-18T00:29:31;98516.94;;;23.20;60.25
6194;BME280;3130;41.564;23.280;2022-08-18T00:32:10;98503.19;;;23.03;60.65
6194;BME280;3130;41.564;23.280;2022-08-18T00:34:38;98515.22;;;23.12;60.75
6194;BME280;3130;41.564;23.280;2022-08-18T00:37:05;98504.50;;;23.07;60.78
6194;BME280;3130;41.564;23.280;2022-08-18T00:39:33;98478.50;;;22.91;60.75
6194;BME280;3130;41.564;23.280;2022-08-18T00:42:11;98533.03;;;23.17;60.79
6194;BME280;3130;41.564;23.280;2022-08-18T00:44:39;98521.09;;;23.14;60.92
6194;BME280;3130;41.564;23.280;2022-08-18T00:47:08;98525.81;;;23.19;60.83
6194;BME280;3130;41.564;23.280;2022-08-18T00:49:37;98521.72;;;23.16;61.00
6194;BME280;3130;41.564;23.280;2022-08-18T00:52:07;98516.28;;;23.03;60.92
6194;BME280;3130;41.564;23.280;2022-08-18T00:54:37;98524.44;;;23.08;61.34
6194;BME280;3130;41.564;23.280;2022-08-18T00:57:08;98529.81;;;22.92;61.71
6194;BME280;3130;41.564;23.280;2022-08-18T00:59:38;98523.50;;;22.64;62.91
6194;BME280;3130;41.564;23.280;2022-08-18T01:02:11;98527.94;;;22.64;63.07
6194;BME280;3130;41.564;23.280;2022-08-18T01:04:45;98525.31;;;22.64;63.35
6194;BME280;3130;41.564;23.280;2022-08-18T01:07:17;98517.53;;;22.56;63.36
6194;BME280;3130;41.564;23.280;2022-08-18T01:09:46;98506.63;;;22.52;63.87
6194;BME280;3130;41.564;23.280;2022-08-18T01:12:13;98517.72;;;22.54;63.78
6194;BME280;3130;41.564;23.280;2022-08-18T01:14:41;98517.88;;;22.53;63.91
6194;BME280;3130;41.564;23.280;2022-08-18T01:17:09;98523.59;;;22.56;63.51
6194;BME280;3130;41.564;23.280;2022-08-18T01:19:54;98523.41;;;22.58;63.95
6194;BME280;3130;41.564;23.280;2022-08-18T01:22:50;98522.47;;;22.51;64.05
6194;BME280;3130;41.564;23.280;2022-08-18T01:25:21;98520.09;;;22.41;64.22
6194;BME280;3130;41.564;23.280;2022-08-18T01:28:06;98519.84;;;22.37;64.52
6194;BME280;3130;41.564;23.280;2022-08-18T01:30:44;98517.97;;;22.45;64.45
6194;BME280;3130;41.564;23.280;2022-08-18T01:33:13;98461.06;;;22.10;64.55
6194;BME280;3130;41.564;23.280;2022-08-18T01:35:42;98515.84;;;22.40;64.42
6194;BME280;3130;41.564;23.280;2022-08-18T01:38:17;98516.38;;;22.36;64.99
6194;BME280;3130;41.564;23.280;2022-08-18T01:40:45;98517.22;;;22.29;65.39
6194;BME280;3130;41.564;23.280;2022-08-18T01:43:13;98502.31;;;22.15;65.74
6194;BME280;3130;41.564;23.280;2022-08-18T01:45:41;98516.81;;;22.17;65.78
6194;BME280;3130;41.564;23.280;2022-08-18T01:48:09;98521.88;;;22.19;65.75
6194;BME280;3130;41.564;23.280;2022-08-18T01:50:37;98497.72;;;22.17;65.60
6194;BME280;3130;41.564;23.280;2022-08-18T01:53:07;98494.03;;;22.11;65.73
6194;BME280;3130;41.564;23.280;2022-08-18T01:55:39;98517.22;;;22.29;65.91
6194;BME280;3130;41.564;23.280;2022-08-18T01:58:10;98518.50;;;22.33;65.21
6194;BME280;3130;41.564;23.280;2022-08-18T02:00:39;98517.88;;;22.31;65.48
6194;BME280;3130;41.564;23.280;2022-08-18T02:03:10;98517.47;;;22.19;66.19
6194;BME280;3130;41.564;23.280;2022-08-18T02:05:42;98518.34;;;22.12;66.19
6194;BME280;3130;41.564;23.280;2022-08-18T02:08:10;98519.78;;;22.14;66.15
6194;BME280;3130;41.564;23.280;2022-08-18T02:10:41;98486.44;;;21.94;66.27
6194;BME280;3130;41.564;23.280;2022-08-18T02:13:09;98530.41;;;22.13;66.06
6194;BME280;3130;41.564;23.280;2022-08-18T02:15:36;98518.22;;;22.05;66.89
6194;BME280;3130;41.564;23.280;2022-08-18T02:18:04;98522.16;;;22.01;66.51
6194;BME280;3130;41.564;23.280;2022-08-18T02:20:31;98523.00;;;21.94;66.64
6194;BME280;3130;41.564;23.280;2022-08-18T02:22:58;98524.19;;;21.91;66.80
6194;BME280;3130;41.564;23.280;2022-08-18T02:25:25;98527.78;;;21.90;67.04
6194;BME280;3130;41.564;23.280;2022-08-18T02:27:55;98524.69;;;21.87;67.26
6194;BME280;3130;41.564;23.280;2022-08-18T02:30:22;98488.13;;;21.56;67.52
6194;BME280;3130;41.564;23.280;2022-08-18T02:32:50;98526.91;;;21.67;68.15
6194;BME280;3130;41.564;23.280;2022-08-18T02:35:17;98535.25;;;21.63;68.28
6194;BME280;3130;41.564;23.280;2022-08-18T02:37:44;98475.38;;;21.23;68.20
6194;BME280;3130;41.564;23.280;2022-08-18T02:40:13;98549.22;;;21.70;68.12
6194;BME280;3130;41.564;23.280;2022-08-18T02:42:41;98548.63;;;21.68;68.27
6194;BME280;3130;41.564;23.280;2022-08-18T02:45:11;98549.59;;;21.67;68.12
6194;BME280;3130;41.564;23.280;2022-08-18T02:47:39;98541.13;;;21.65;68.23
6194;BME280;3130;41.564;23.280;2022-08-18T02:50:07;98540.81;;;21.60;68.48
6194;BME280;3130;41.564;23.280;2022-08-18T02:52:35;98546.84;;;21.60;68.28
6194;BME280;3130;41.564;23.280;2022-08-18T02:55:06;98553.66;;;21.61;68.48
6194;BME280;3130;41.564;23.280;2022-08-18T02:57:35;98485.66;;;21.17;68.36
6194;BME280;3130;41.564;23.280;2022-08-18T03:00:03;98510.25;;;21.30;68.57
6194;BME280;3130;41.564;23.280;2022-08-18T03:02:32;98485.16;;;21.21;68.50
6194;BME280;3130;41.564;23.280;2022-08-18T03:05:00;98525.97;;;21.44;68.38
6194;BME280;3130;41.564;23.280;2022-08-18T03:07:28;98527.78;;;21.44;68.70
6194;BME280;3130;41.564;23.280;2022-08-18T03:09:58;98546.31;;;21.57;68.72
6194;BME280;3130;41.564;23.280;2022-08-18T03:12:26;98505.03;;;21.30;68.80
6194;BME280;3130;41.564;23.280;2022-08-18T03:15:01;98427.56;;;20.76;68.94
6194;BME280;3130;41.564;23.280;2022-08-18T03:17:29;98553.22;;;21.50;69.14
6194;BME280;3130;41.564;23.280;2022-08-18T03:19:59;98546.06;;;21.44;69.16
6194;BME280;3130;41.564;23.280;2022-08-18T03:22:26;98549.50;;;21.36;69.26
6194;BME280;3130;41.564;23.280;2022-08-18T03:24:53;98556.34;;;21.37;69.90
6194;BME280;3130;41.564;23.280;2022-08-18T03:27:21;98561.59;;;21.30;70.16
6194;BME280;3130;41.564;23.280;2022-08-18T03:29:48;98571.06;;;21.23;70.65
6194;BME280;3130;41.564;23.280;2022-08-18T03:32:16;98550.72;;;21.10;70.81
6194;BME280;3130;41.564;23.280;2022-08-18T03:34:43;98568.94;;;21.26;70.37
6194;BME280;3130;41.564;23.280;2022-08-18T03:37:14;98567.50;;;21.24;70.38
6194;BME280;3130;41.564;23.280;2022-08-18T03:39:42;98571.22;;;21.21;70.99
6194;BME280;3130;41.564;23.280;2022-08-18T03:42:09;98479.72;;;20.60;71.26
6194;BME280;3130;41.564;23.280;2022-08-18T03:44:36;98477.44;;;20.65;70.92
6194;BME280;3130;41.564;23.280;2022-08-18T03:47:07;98564.06;;;21.23;70.95
6194;BME280;3130;41.564;23.280;2022-08-18T03:49:36;98575.97;;;21.26;70.58
6194;BME280;3130;41.564;23.280;2022-08-18T03:52:07;98576.94;;;21.25;70.58
6194;BME280;3130;41.564;23.280;2022-08-18T03:54:36;98575.59;;;21.29;70.75
6194;BME280;3130;41.564;23.280;2022-08-18T03:57:07;98539.31;;;21.03;70.63
6194;BME280;3130;41.564;23.280;2022-08-18T03:59:37;98583.78;;;21.26;70.83
6194;BME280;3130;41.564;23.280;2022-08-18T04:02:06;98535.75;;;20.96;70.64
6194;BME280;3130;41.564;23.280;2022-08-18T04:04:34;98578.91;;;21.23;70.14
6194;BME280;3130;41.564;23.280;2022-08-18T04:07:05;98566.50;;;21.09;70.06
6194;BME280;3130;41.564;23.280;2022-08-18T04:09:36;98582.78;;;21.27;69.94
6194;BME280;3130;41.564;23.280;2022-08-18T04:12:07;98595.66;;;21.28;69.92
6194;BME280;3130;41.564;23.280;2022-08-18T04:14:37;98523.69;;;20.87;69.56
6194;BME280;3130;41.564;23.280;2022-08-18T04:17:05;98564.72;;;21.09;69.53
6194;BME280;3130;41.564;23.280;2022-08-18T04:19:32;98603.66;;;21.34;69.54
6194;BME280;3130;41.564;23.280;2022-08-18T04:22:00;98608.38;;;21.31;69.62
6194;BME280;3130;41.564;23.280;2022-08-18T04:24:30;98576.16;;;21.08;69.61
6194;BME280;3130;41.564;23.280;2022-08-18T04:27:01;98562.78;;;21.11;69.43
6194;BME280;3130;41.564;23.280;2022-08-18T04:29:29;98606.06;;;21.36;69.93
6194;BME280;3130;41.564;23.280;2022-08-18T04:31:59;98536.88;;;20.94;69.75
6194;BME280;3130;41.564;23.280;2022-08-18T04:34:27;98611.63;;;21.49;69.95
6194;BME280;3130;41.564;23.280;2022-08-18T04:36:54;98583.75;;;21.41;69.88
6194;BME280;3130;41.564;23.280;2022-08-18T04:39:23;98603.25;;;21.61;69.91
6194;BME280;3130;41.564;23.280;2022-08-18T04:41:51;98609.28;;;21.70;69.60
6194;BME280;3130;41.564;23.280;2022-08-18T04:44:20;98596.09;;;21.63;69.15
6194;BME280;3130;41.564;23.280;2022-08-18T04:46:49;98609.91;;;21.80;69.16
6194;BME280;3130;41.564;23.280;2022-08-18T04:49:19;98606.44;;;21.87;69.04
6194;BME280;3130;41.564;23.280;2022-08-18T04:51:51;98607.88;;;21.90;69.01
6194;BME280;3130;41.564;23.280;2022-08-18T04:54:38;98605.28;;;21.90;69.22
6194;BME280;3130;41.564;23.280;2022-08-18T04:57:09;98600.72;;;21.92;68.96
6194;BME280;3130;41.564;23.280;2022-08-18T04:59:41;98532.50;;;21.48;68.76
6194;BME280;3130;41.564;23.280;2022-08-18T05:02:10;98597.63;;;21.88;68.85
6194;BME280;3130;41.564;23.280;2022-08-18T05:04:41;98583.47;;;21.83;68.26
6194;BME280;3130;41.564;23.280;2022-08-18T05:07:13;98563.44;;;21.75;68.16
6194;BME280;3130;41.564;23.280;2022-08-18T05:09:41;98603.44;;;22.06;67.76
6194;BME280;3130;41.564;23.280;2022-08-18T05:12:09;98602.56;;;22.14;67.46
6194;BME280;3130;41.564;23.280;2022-08-18T05:14:40;98553.13;;;21.82;67.79
6194;BME280;3130;41.564;23.280;2022-08-18T05:17:09;98561.72;;;21.90;67.58
6194;BME280;3130;41.564;23.280;2022-08-18T05:19:36;98554.47;;;22.00;67.21
6194;BME280;3130;41.564;23.280;2022-08-18T05:22:04;98601.81;;;22.36;66.79
6194;BME280;3130;41.564;23.280;2022-08-18T05:24:32;98621.75;;;22.59;66.47
6194;BME280;3130;41.564;23.280;2022-08-18T05:27:00;98626.88;;;22.75;66.90
6194;BME280;3130;41.564;23.280;2022-08-18T05:29:28;98603.53;;;22.73;67.08
6194;BME280;3130;41.564;23.280;2022-08-18T05:32:03;98631.72;;;23.08;66.63
6194;BME280;3130;41.564;23.280;2022-08-18T05:34:33;98593.47;;;23.07;67.08
6194;BME280;3130;41.564;23.280;2022-08-18T05:37:08;98583.84;;;23.00;66.65
6194;BME280;3130;41.564;23.280;2022-08-18T05:39:49;98633.38;;;23.38;66.55
6194;BME280;3130;41.564;23.280;2022-08-18T05:42:21;98643.75;;;23.46;65.55
6194;BME280;3130;41.564;23.280;2022-08-18T05:44:53;98639.78;;;23.50;66.16
6194;BME280;3130;41.564;23.280;2022-08-18T05:47:25;98585.91;;;23.27;66.01
6194;BME280;3130;41.564;23.280;2022-08-18T05:49:55;98641.19;;;23.75;66.11
6194;BME280;3130;41.564;23.280;2022-08-18T05:52:31;98641.38;;;23.88;64.93
6194;BME280;3130;41.564;23.280;2022-08-18T05:55:03;98617.91;;;23.80;65.32
6194;BME280;3130;41.564;23.280;2022-08-18T05:57:50;98639.81;;;24.08;65.19
6194;BME280;3130;41.564;23.280;2022-08-18T06:00:21;98646.69;;;24.23;60.76
6194;BME280;3130;41.564;23.280;2022-08-18T06:02:55;98576.22;;;23.99;60.05
6194;BME280;3130;41.564;23.280;2022-08-18T06:05:26;98636.84;;;24.60;58.33
6194;BME280;3130;41.564;23.280;2022-08-18T06:07:58;98619.28;;;24.61;58.81
6194;BME280;3130;41.564;23.280;2022-08-18T06:10:26;98638.09;;;24.85;57.30
6194;BME280;3130;41.564;23.280;2022-08-18T06:12:56;98574.88;;;24.59;56.99
6194;BME280;3130;41.564;23.280;2022-08-18T06:15:26;98639.31;;;25.10;56.28
6194;BME280;3130;41.564;23.280;2022-08-18T06:18:22;98636.22;;;25.21;56.21
6194;BME280;3130;41.564;23.280;2022-08-18T06:21:13;98640.03;;;25.46;56.14
6194;BME280;3130;41.564;23.280;2022-08-18T06:23:50;98643.81;;;25.64;55.58
6194;BME280;3130;41.564;23.280;2022-08-18T06:26:22;98643.94;;;25.84;55.46
6194;BME280;3130;41.564;23.280;2022-08-18T06:28:58;98645.47;;;26.06;54.39
6194;BME280;3130;41.564;23.280;2022-08-18T06:31:33;98637.22;;;26.15;53.68
6194;BME280;3130;41.564;23.280;2022-08-18T06:34:15;98632.00;;;26.22;52.69
6194;BME280;3130;41.564;23.280;2022-08-18T06:36:51;98645.25;;;26.48;52.52
6194;BME280;3130;41.564;23.280;2022-08-18T06:39:25;98644.28;;;26.62;50.92
6194;BME280;3130;41.564;23.280;2022-08-18T06:41:55;98647.75;;;26.81;50.52
6194;BME280;3130;41.564;23.280;2022-08-18T06:44:28;98642.91;;;26.98;49.44
6194;BME280;3130;41.564;23.280;2022-08-18T06:47:00;98562.13;;;26.66;48.09
6194;BME280;3130;41.564;23.280;2022-08-18T06:49:38;98637.88;;;27.35;47.08
6194;BME280;3130;41.564;23.280;2022-08-18T06:52:22;98627.91;;;27.50;46.02
6194;BME280;3130;41.564;23.280;2022-08-18T06:54:50;98651.22;;;27.79;45.93
6194;BME280;3130;41.564;23.280;2022-08-18T06:57:24;98574.81;;;27.53;45.16
6194;BME280;3130;41.564;23.280;2022-08-18T07:00:03;98639.97;;;28.16;44.80
6194;BME280;3130;41.564;23.280;2022-08-18T07:02:42;98635.00;;;28.39;44.94
6194;BME280;3130;41.564;23.280;2022-08-18T07:05:19;98627.38;;;28.62;43.75
6194;BME280;3130;41.564;23.280;2022-08-18T07:08:02;98627.25;;;28.81;41.43
6194;BME280;3130;41.564;23.280;2022-08-18T07:10:33;98595.38;;;28.82;42.12
6194;BME280;3130;41.564;23.280;2022-08-18T07:13:21;98618.13;;;29.32;41.04
6194;BME280;3130;41.564;23.280;2022-08-18T07:15:50;98613.75;;;29.44;40.66
6194;BME280;3130;41.564;23.280;2022-08-18T07:18:24;98611.78;;;29.58;40.23
6194;BME280;3130;41.564;23.280;2022-08-18T07:20:55;98615.56;;;29.86;39.84
6194;BME280;3130;41.564;23.280;2022-08-18T07:23:26;98621.22;;;30.07;39.17
6194;BME280;3130;41.564;23.280;2022-08-18T07:26:06;98623.72;;;30.20;38.14
6194;BME280;3130;41.564;23.280;2022-08-18T07:28:38;98620.81;;;30.40;38.36
6194;BME280;3130;41.564;23.280;2022-08-18T07:33:55;98611.97;;;30.64;38.15
6194;BME280;3130;41.564;23.280;2022-08-18T07:36:27;98613.75;;;30.92;38.01
6194;BME280;3130;41.564;23.280;2022-08-18T07:39:01;98601.16;;;31.17;37.10
6194;BME280;3130;41.564;23.280;2022-08-18T07:41:33;98575.44;;;31.18;36.42
6194;BME280;3130;41.564;23.280;2022-08-18T07:44:13;98623.19;;;31.64;36.33
6194;BME280;3130;41.564;23.280;2022-08-18T07:46:49;98606.78;;;31.78;35.39
6194;BME280;3130;41.564;23.280;2022-08-18T07:49:19;98604.13;;;31.90;35.40
6194;BME280;3130;41.564;23.280;2022-08-18T07:51:53;98559.75;;;31.74;35.17
6194;BME280;3130;41.564;23.280;2022-08-18T07:54:33;98595.56;;;32.10;34.92
6194;BME280;3130;41.564;23.280;2022-08-18T07:57:10;98608.47;;;32.46;34.64
6194;BME280;3130;41.564;23.280;2022-08-18T07:59:46;98533.44;;;32.39;33.44
6194;BME280;3130;41.564;23.280;2022-08-18T08:02:29;98593.34;;;33.07;33.79
6194;BME280;3130;41.564;23.280;2022-08-18T08:05:06;98606.06;;;33.38;32.73
6194;BME280;3130;41.564;23.280;2022-08-18T08:07:44;98602.06;;;33.36;32.29
6194;BME280;3130;41.564;23.280;2022-08-18T08:10:31;98607.28;;;33.31;32.52
6194;BME280;3130;41.564;23.280;2022-08-18T08:13:07;98601.53;;;33.06;32.70
6194;BME280;3130;41.564;23.280;2022-08-18T08:15:49;98600.03;;;32.94;33.45
6194;BME280;3130;41.564;23.280;2022-08-18T08:18:26;98596.00;;;32.91;33.29
6194;BME280;3130;41.564;23.280;2022-08-18T08:21:03;98592.94;;;32.83;33.30
6194;BME280;3130;41.564;23.280;2022-08-18T08:23:40;98590.09;;;32.89;33.26
6194;BME280;3130;41.564;23.280;2022-08-18T08:26:26;98589.31;;;32.89;33.50
6194;BME280;3130;41.564;23.280;2022-08-18T08:29:08;98584.25;;;33.03;33.17
6194;BME280;3130;41.564;23.280;2022-08-18T08:31:47;98580.41;;;33.27;32.64
6194;BME280;3130;41.564;23.280;2022-08-18T08:34:18;98585.97;;;33.47;32.57
6194;BME280;3130;41.564;23.280;2022-08-18T08:36:46;98576.94;;;33.65;32.41
6194;BME280;3130;41.564;23.280;2022-08-18T08:39:21;98552.59;;;33.56;31.50
6194;BME280;3130;41.564;23.280;2022-08-18T08:41:53;98575.16;;;33.92;31.34
6194;BME280;3130;41.564;23.280;2022-08-18T08:44:26;98569.88;;;33.97;31.81
6194;BME280;3130;41.564;23.280;2022-08-18T08:46:59;98554.19;;;33.95;30.88
6194;BME280;3130;41.564;23.280;2022-08-18T08:49:34;98564.41;;;34.24;31.69
6194;BME280;3130;41.564;23.280;2022-08-18T08:52:08;98555.78;;;34.44;30.62
6194;BME280;3130;41.564;23.280;2022-08-18T08:54:46;98553.47;;;34.52;30.48
6194;BME280;3130;41.564;23.280;2022-08-18T08:57:17;98529.34;;;34.37;30.54
6194;BME280;3130;41.564;23.280;2022-08-18T08:59:46;98461.84;;;34.01;30.82
6194;BME280;3130;41.564;23.280;2022-08-18T09:02:27;98524.59;;;34.39;30.92
6194;BME280;3130;41.564;23.280;2022-08-18T09:05:02;98545.91;;;34.44;30.90
6194;BME280;3130;41.564;23.280;2022-08-18T09:08:02;98544.97;;;34.55;31.14
6194;BME280;3130;41.564;23.280;2022-08-18T09:10:46;98532.78;;;34.59;30.52
6194;BME280;3130;41.564;23.280;2022-08-18T09:13:41;98530.16;;;34.64;30.65
6194;BME280;3130;41.564;23.280;2022-08-18T09:16:22;98525.25;;;34.56;31.15
6194;BME280;3130;41.564;23.280;2022-08-18T09:19:04;98490.41;;;34.31;31.00
6194;BME280;3130;41.564;23.280;2022-08-18T09:21:40;98499.22;;;34.37;30.89
6194;BME280;3130;41.564;23.280;2022-08-18T09:24:21;98516.81;;;34.33;31.07
6194;BME280;3130;41.564;23.280;2022-08-18T09:26:53;98506.59;;;34.25;30.98
6194;BME280;3130;41.564;23.280;2022-08-18T09:29:48;98493.69;;;34.12;31.26
6194;BME280;3130;41.564;23.280;2022-08-18T09:35:34;98444.00;;;33.75;31.84
6194;BME280;3130;41.564;23.280;2022-08-18T09:38:09;98480.94;;;34.14;31.45
6194;BME280;3130;41.564;23.280;2022-08-18T09:40:58;98492.22;;;34.26;31.29
6194;BME280;3130;41.564;23.280;2022-08-18T09:43:57;98487.22;;;34.34;31.13
6194;BME280;3130;41.564;23.280;2022-08-18T09:46:55;98487.06;;;34.46;30.69
6194;BME280;3130;41.564;23.280;2022-08-18T09:49:48;98479.09;;;34.46;31.17
6194;BME280;3130;41.564;23.280;2022-08-18T09:55:51;98476.56;;;34.61;29.36
6194;BME280;3130;41.564;23.280;2022-08-18T09:58:51;98465.03;;;34.24;29.78
6194;BME280;3130;41.564;23.280;2022-08-18T10:01:30;98476.84;;;34.33;30.09
6194;BME280;3130;41.564;23.280;2022-08-18T10:04:26;98468.72;;;34.49;28.67
6194;BME280;3130;41.564;23.280;2022-08-18T10:07:13;98406.72;;;34.22;28.29
6194;BME280;3130;41.564;23.280;2022-08-18T10:09:56;98462.78;;;34.74;28.34
6194;BME280;3130;41.564;23.280;2022-08-18T10:12:35;98466.38;;;34.89;28.24
6194;BME280;3130;41.564;23.280;2022-08-18T10:18:04;98460.66;;;35.07;27.70
6194;BME280;3130;41.564;23.280;2022-08-18T10:20:45;98451.06;;;35.11;27.37
6194;BME280;3130;41.564;23.280;2022-08-18T10:23:49;98452.44;;;35.23;27.73
6194;BME280;3130;41.564;23.280;2022-08-18T10:29:54;98447.16;;;35.33;27.34
6194;BME280;3130;41.564;23.280;2022-08-18T10:32:35;98433.47;;;35.15;27.86
6194;BME280;3130;41.564;23.280;2022-08-18T10:35:52;98452.72;;;35.22;27.06
6194;BME280;3130;41.564;23.280;2022-08-18T10:38:05;98452.22;;;35.30;26.51
6194;BME280;3130;41.564;23.280;2022-08-18T10:40:35;98442.41;;;35.40;26.46
6194;BME280;3130;41.564;23.280;2022-08-18T10:43:08;98441.09;;;35.48;25.85
6194;BME280;3130;41.564;23.280;2022-08-18T10:45:42;98442.22;;;35.57;26.02
6194;BME280;3130;41.564;23.280;2022-08-18T10:48:18;98426.50;;;35.65;25.88
6194;BME280;3130;41.564;23.280;2022-08-18T10:50:55;98415.81;;;35.65;25.25
6194;BME280;3130;41.564;23.280;2022-08-18T10:53:29;98390.97;;;35.55;24.20
6194;BME280;3130;41.564;23.280;2022-08-18T10:56:02;98426.75;;;35.64;22.92
6194;BME280;3130;41.564;23.280;2022-08-18T10:58:48;98432.06;;;35.54;23.43
6194;BME280;3130;41.564;23.280;2022-08-18T11:04:26;98415.56;;;35.77;22.65
6194;BME280;3130;41.564;23.280;2022-08-18T11:07:02;98411.59;;;35.89;23.13
6194;BME280;3130;41.564;23.280;2022-08-18T11:09:31;98403.09;;;36.02;23.10
6194;BME280;3130;41.564;23.280;2022-08-18T11:12:00;98342.13;;;35.59;23.21
6194;BME280;3130;41.564;23.280;2022-08-18T11:14:53;98399.31;;;35.98;23.18
6194;BME280;3130;41.564;23.280;2022-08-18T11:20:13;98400.69;;;36.01;23.40
6194;BME280;3130;41.564;23.280;2022-08-18T11:22:52;98400.69;;;36.01;23.59
6194;BME280;3130;41.564;23.280;2022-08-18T11:25:24;98390.19;;;35.79;23.76
6194;BME280;3130;41.564;23.280;2022-08-18T11:27:52;98401.44;;;35.81;25.22
6194;BME280;3130;41.564;23.280;2022-08-18T11:30:22;98392.91;;;35.89;24.00
6194;BME280;3130;41.564;23.280;2022-08-18T11:32:52;98385.69;;;35.95;23.78
6194;BME280;3130;41.564;23.280;2022-08-18T11:35:23;98384.09;;;35.99;24.22
6194;BME280;3130;41.564;23.280;2022-08-18T11:37:56;98371.53;;;35.99;24.18
6194;BME280;3130;41.564;23.280;2022-08-18T11:40:34;98378.78;;;36.23;23.40
6194;BME280;3130;41.564;23.280;2022-08-18T11:43:04;98383.84;;;36.15;23.33
6194;BME280;3130;41.564;23.280;2022-08-18T11:45:49;98330.94;;;35.87;25.42
6194;BME280;3130;41.564;23.280;2022-08-18T11:48:21;98338.41;;;35.80;23.08
6194;BME280;3130;41.564;23.280;2022-08-18T11:50:59;98357.13;;;36.15;22.25
6194;BME280;3130;41.564;23.280;2022-08-18T11:53:52;98362.22;;;36.07;22.06
6194;BME280;3130;41.564;23.280;2022-08-18T11:56:24;98309.84;;;35.71;23.81
6194;BME280;3130;41.564;23.280;2022-08-18T11:58:53;98290.91;;;35.57;22.66
6194;BME280;3130;41.564;23.280;2022-08-18T12:01:37;98349.94;;;36.01;24.03
6194;BME280;3130;41.564;23.280;2022-08-18T12:04:25;98355.56;;;36.09;22.46
6194;BME280;3130;41.564;23.280;2022-08-18T12:07:02;98344.34;;;36.07;22.32
6194;BME280;3130;41.564;23.280;2022-08-18T12:09:36;98278.63;;;35.66;22.52
6194;BME280;3130;41.564;23.280;2022-08-18T12:12:13;98333.34;;;35.99;22.74
6194;BME280;3130;41.564;23.280;2022-08-18T12:14:53;98336.84;;;36.14;22.50
6194;BME280;3130;41.564;23.280;2022-08-18T12:17:22;98324.28;;;36.29;22.54
6194;BME280;3130;41.564;23.280;2022-08-18T12:19:49;98316.50;;;36.38;22.22
6194;BME280;3130;41.564;23.280;2022-08-18T12:22:19;98282.59;;;36.23;22.13
6194;BME280;3130;41.564;23.280;2022-08-18T12:24:48;98278.84;;;36.29;21.76
6194;BME280;3130;41.564;23.280;2022-08-18T12:27:18;98311.16;;;36.53;21.61
6194;BME280;3130;41.564;23.280;2022-08-18T12:29:45;98267.63;;;36.22;21.79
6194;BME280;3130;41.564;23.280;2022-08-18T12:32:13;98305.53;;;36.44;22.02
6194;BME280;3130;41.564;23.280;2022-08-18T12:34:40;98307.41;;;36.54;22.06
6194;BME280;3130;41.564;23.280;2022-08-18T12:37:08;98255.09;;;36.13;22.30
6194;BME280;3130;41.564;23.280;2022-08-18T12:39:36;98301.78;;;36.40;22.30
6194;BME280;3130;41.564;23.280;2022-08-18T12:42:06;98295.41;;;36.36;21.78
6194;BME280;3130;41.564;23.280;2022-08-18T12:44:33;98275.34;;;36.34;21.47
6194;BME280;3130;41.564;23.280;2022-08-18T12:47:02;98303.13;;;36.63;22.46
6194;BME280;3130;41.564;23.280;2022-08-18T12:49:31;98289.22;;;36.61;21.70
6194;BME280;3130;41.564;23.280;2022-08-18T12:51:58;98303.34;;;36.71;21.97
6194;BME280;3130;41.564;23.280;2022-08-18T12:54:26;98234.50;;;36.33;22.14
6194;BME280;3130;41.564;23.280;2022-08-18T12:56:54;98239.81;;;36.48;22.33
6194;BME280;3130;41.564;23.280;2022-08-18T12:59:24;98288.63;;;36.69;22.52
6194;BME280;3130;41.564;23.280;2022-08-18T13:01:52;98208.56;;;36.29;22.71
6194;BME280;3130;41.564;23.280;2022-08-18T13:04:20;98278.72;;;36.74;22.28
6194;BME280;3130;41.564;23.280;2022-08-18T13:06:49;98253.34;;;36.67;21.79
6194;BME280;3130;41.564;23.280;2022-08-18T13:09:18;98288.56;;;36.94;22.50
6194;BME280;3130;41.564;23.280;2022-08-18T13:11:45;98290.41;;;36.98;23.07
6194;BME280;3130;41.564;23.280;2022-08-18T13:14:13;98198.09;;;36.52;22.71
6194;BME280;3130;41.564;23.280;2022-08-18T13:16:43;98270.63;;;36.94;23.00
6194;BME280;3130;41.564;23.280;2022-08-18T13:19:11;98276.22;;;37.03;22.56
6194;BME280;3130;41.564;23.280;2022-08-18T13:21:39;98263.16;;;36.86;23.41
6194;BME280;3130;41.564;23.280;2022-08-18T13:24:08;98269.56;;;36.95;22.15
6194;BME280;3130;41.564;23.280;2022-08-18T13:26:38;98174.88;;;36.38;23.29
6194;BME280;3130;41.564;23.280;2022-08-18T13:29:07;98248.97;;;36.96;22.23
6194;BME280;3130;41.564;23.280;2022-08-18T13:31:34;98266.53;;;37.12;22.30
6194;BME280;3130;41.564;23.280;2022-08-18T13:34:04;98253.09;;;37.17;22.14
6194;BME280;3130;41.564;23.280;2022-08-18T13:36:32;98251.47;;;37.21;22.26
6194;BME280;3130;41.564;23.280;2022-08-18T13:39:10;98189.09;;;36.82;22.83
6194;BME280;3130;41.564;23.280;2022-08-18T13:41:38;98210.47;;;36.97;22.64
6194;BME280;3130;41.564;23.280;2022-08-18T13:44:07;98250.66;;;37.25;22.16
6194;BME280;3130;41.564;23.280;2022-08-18T13:46:35;98234.97;;;37.09;22.01
6194;BME280;3130;41.564;23.280;2022-08-18T13:49:09;98250.97;;;37.19;22.69
6194;BME280;3130;41.564;23.280;2022-08-18T13:51:36;98240.03;;;37.15;22.54
6194;BME280;3130;41.564;23.280;2022-08-18T13:54:04;98248.50;;;37.27;22.47
6194;BME280;3130;41.564;23.280;2022-08-18T13:56:31;98254.63;;;37.33;22.17
6194;BME280;3130;41.564;23.280;2022-08-18T13:58:59;98258.09;;;37.33;22.61
6194;BME280;3130;41.564;23.280;2022-08-18T14:01:29;98168.53;;;36.82;22.43
6194;BME280;3130;41.564;23.280;2022-08-18T14:03:57;98247.91;;;37.35;22.80